Time;durP1;ratioP1;P1;durP2;ratioP2;P2;SDS_P1;SDS_P2;PMS_P1;PMS_P2;Temp;Humidity;BMP_temperature;BMP_pressure;BME280_temperature;BME280_humidity;BME280_pressure;Samples;Min_cycle;Max_cycle;Signal;HPM_P1;HPM_P2
2022/11/26 00:01:43;;;;;;;80.47;33.13;;;3.60;99.90;;;;;;5039017;23;20292;-74
2022/11/26 00:04:10;;;;;;;76.70;32.57;;;3.60;99.90;;;;;;5012251;28;20286;-74
2022/11/26 00:06:39;;;;;;;83.97;33.60;;;3.60;99.90;;;;;;5011568;28;20353;-73
2022/11/26 00:09:13;;;;;;;79.53;33.30;;;3.50;99.90;;;;;;5011637;28;20308;-75
2022/11/26 00:11:40;;;;;;;81.83;34.37;;;3.60;99.90;;;;;;5012044;28;20207;-72
2022/11/26 00:16:45;;;;;;;75.60;31.90;;;3.60;99.90;;;;;;5246948;23;20224;-74
2022/11/26 00:19:12;;;;;;;77.77;31.53;;;3.60;99.90;;;;;;5007236;28;20273;-74
2022/11/26 00:24:25;;;;;;;77.57;32.33;;;3.60;99.90;;;;;;5010691;28;20200;-73
2022/11/26 00:26:52;;;;;;;84.00;31.90;;;3.60;99.90;;;;;;5092004;23;20229;-74
2022/11/26 00:29:19;;;;;;;78.70;32.43;;;3.60;99.90;;;;;;5013740;28;20261;-74
2022/11/26 00:31:47;;;;;;;82.57;32.37;;;3.60;99.90;;;;;;5013517;28;20235;-71
2022/11/26 00:34:13;;;;;;;87.23;32.23;;;3.60;99.90;;;;;;5238386;23;20227;-70
2022/11/26 00:36:42;;;;;;;88.27;32.67;;;3.60;99.90;;;;;;5017008;28;20168;-70
2022/11/26 00:39:16;;;;;;;78.10;32.10;;;3.60;99.90;;;;;;5016799;28;20188;-71
2022/11/26 00:41:48;;;;;;;83.00;33.40;;;3.60;99.90;;;;;;5016495;28;20174;-71
2022/11/26 00:44:17;;;;;;;82.07;32.33;;;3.60;99.90;;;;;;5016155;28;20195;-71
2022/11/26 00:46:44;;;;;;;83.87;32.33;;;3.70;99.90;;;;;;5016885;28;20191;-71
2022/11/26 00:49:12;;;;;;;86.63;32.57;;;3.60;99.90;;;;;;5016673;28;20255;-71
2022/11/26 00:51:39;;;;;;;91.73;33.03;;;3.60;99.90;;;;;;5016081;28;20184;-70
2022/11/26 00:54:09;;;;;;;79.27;33.17;;;3.70;99.90;;;;;;5016684;28;20184;-71
2022/11/26 00:56:38;;;;;;;86.53;32.77;;;3.70;99.90;;;;;;5016491;28;20219;-71
2022/11/26 00:59:05;;;;;;;86.47;33.53;;;3.70;99.90;;;;;;5017717;28;20202;-72
2022/11/26 01:01:33;;;;;;;91.87;34.33;;;3.50;99.90;;;;;;5021222;28;20191;-70
2022/11/26 01:04:00;;;;;;;79.13;30.03;;;3.60;99.90;;;;;;5019426;28;20191;-71
2022/11/26 01:06:33;;;;;;;78.97;30.20;;;3.60;99.90;;;;;;5012664;28;20172;-74
2022/11/26 01:09:00;;;;;;;81.70;31.87;;;3.60;99.90;;;;;;4995327;28;20227;-74
2022/11/26 01:11:27;;;;;;;78.93;30.03;;;3.60;99.90;;;;;;4995900;28;20207;-73
2022/11/26 01:13:55;;;;;;;77.23;31.43;;;3.60;99.90;;;;;;4994926;28;20219;-72
2022/11/26 01:16:24;;;;;;;80.00;31.73;;;3.60;99.90;;;;;;4994973;28;20232;-72
2022/11/26 01:18:53;;;;;;;69.07;29.10;;;3.60;99.90;;;;;;4999676;28;20219;-69
2022/11/26 01:21:20;;;;;;;72.40;29.70;;;3.60;99.90;;;;;;5014064;28;20192;-71
2022/11/26 01:23:48;;;;;;;67.80;29.07;;;3.60;99.90;;;;;;5011837;28;20203;-69
2022/11/26 01:26:17;;;;;;;76.30;29.70;;;3.60;99.90;;;;;;5013590;28;20232;-70
2022/11/26 01:28:44;;;;;;;73.60;30.57;;;3.60;99.90;;;;;;5013868;28;20538;-71
2022/11/26 01:31:16;;;;;;;77.70;32.03;;;3.60;99.90;;;;;;5013790;28;20219;-71
2022/11/26 01:33:43;;;;;;;81.77;31.00;;;3.60;99.90;;;;;;5012428;28;20208;-70
2022/11/26 01:36:22;;;;;;;76.43;29.30;;;3.60;99.90;;;;;;5013508;28;20279;-70
2022/11/26 01:38:51;;;;;;;74.67;28.27;;;3.60;99.90;;;;;;5013520;28;20208;-70
2022/11/26 01:41:27;;;;;;;70.87;28.70;;;3.60;99.90;;;;;;5009650;28;20207;-70
2022/11/26 01:43:56;;;;;;;75.77;30.50;;;3.60;99.90;;;;;;5012818;28;20207;-69
2022/11/26 01:46:25;;;;;;;73.30;31.40;;;3.60;99.90;;;;;;5013062;28;20196;-71
2022/11/26 01:48:52;;;;;;;79.30;31.73;;;3.60;99.90;;;;;;5013958;28;20239;-71
2022/11/26 01:51:24;;;;;;;89.47;32.00;;;3.70;99.90;;;;;;5012160;28;20204;-71
2022/11/26 01:53:56;;;;;;;73.47;29.70;;;3.70;99.90;;;;;;5013291;28;20321;-72
2022/11/26 01:56:31;;;;;;;67.10;29.20;;;3.70;99.90;;;;;;5013436;28;20238;-71
2022/11/26 01:59:03;;;;;;;73.73;28.33;;;3.70;99.90;;;;;;5012194;28;20199;-72
2022/11/26 02:01:30;;;;;;;75.40;29.53;;;3.60;99.90;;;;;;5012972;28;20211;-69
2022/11/26 02:04:06;;;;;;;73.20;31.60;;;3.70;99.90;;;;;;5005433;28;20738;-72
2022/11/26 02:06:34;;;;;;;74.37;30.40;;;3.60;99.90;;;;;;4989140;28;20205;-72
2022/11/26 02:09:06;;;;;;;72.83;29.60;;;3.70;99.90;;;;;;4992291;28;20216;-72
2022/11/26 02:11:33;;;;;;;82.30;30.73;;;3.70;99.90;;;;;;4991281;28;20204;-71
2022/11/26 02:14:02;;;;;;;77.70;30.93;;;3.70;99.90;;;;;;4989665;28;20215;-73
2022/11/26 02:16:48;;;;;;;79.30;30.93;;;3.60;99.90;;;;;;4989885;28;20219;-72
2022/11/26 02:19:43;;;;;;;85.43;32.37;;;3.70;99.90;;;;;;4992298;28;20219;-72
2022/11/26 02:22:19;;;;;;;77.73;30.40;;;3.70;99.90;;;;;;4991981;28;20204;-72
2022/11/26 02:24:50;;;;;;;99.90;34.50;;;3.70;99.90;;;;;;4992029;28;20203;-72
2022/11/26 02:27:56;;;;;;;81.30;32.00;;;3.70;99.90;;;;;;4992406;28;20211;-72
2022/11/26 02:30:24;;;;;;;88.20;35.03;;;3.70;99.90;;;;;;4950297;29;20220;-72
2022/11/26 02:32:58;;;;;;;92.67;34.67;;;3.70;99.90;;;;;;4980917;28;20212;-73
2022/11/26 02:35:30;;;;;;;91.63;32.67;;;3.70;99.90;;;;;;4990986;28;20247;-72
2022/11/26 02:38:01;;;;;;;85.53;33.60;;;3.70;99.90;;;;;;4992131;28;20208;-72
2022/11/26 02:40:28;;;;;;;84.87;32.90;;;3.70;99.90;;;;;;4991337;28;20204;-72
2022/11/26 02:42:55;;;;;;;76.00;31.87;;;3.70;99.90;;;;;;4992056;28;20208;-73
2022/11/26 02:45:27;;;;;;;75.00;31.43;;;3.70;99.90;;;;;;4990819;28;20207;-71
2022/11/26 02:47:56;;;;;;;71.03;29.07;;;3.70;99.90;;;;;;4990536;28;20243;-72
2022/11/26 02:50:27;;;;;;;67.67;28.67;;;3.70;99.90;;;;;;4990649;28;20207;-73
2022/11/26 02:52:56;;;;;;;66.10;30.03;;;3.70;99.90;;;;;;4991613;28;20223;-72
2022/11/26 02:55:26;;;;;;;69.43;29.00;;;3.70;99.90;;;;;;4989794;28;20232;-73
2022/11/26 02:57:54;;;;;;;69.37;28.70;;;3.60;99.90;;;;;;4987788;28;20235;-72
2022/11/26 03:00:21;;;;;;;75.17;30.90;;;3.60;99.90;;;;;;4991210;28;20244;-71
2022/11/26 03:02:53;;;;;;;73.47;29.43;;;3.60;99.90;;;;;;4988798;28;20239;-71
2022/11/26 03:05:20;;;;;;;62.07;29.50;;;3.60;99.90;;;;;;4990716;28;20520;-71
2022/11/26 03:07:50;;;;;;;71.40;28.93;;;3.60;99.90;;;;;;4989808;28;20227;-72
2022/11/26 03:10:19;;;;;;;71.80;29.47;;;3.60;99.90;;;;;;4991031;28;20239;-72
2022/11/26 03:12:46;;;;;;;69.97;28.63;;;3.60;99.90;;;;;;4991835;28;20223;-72
2022/11/26 03:15:13;;;;;;;67.17;29.07;;;3.60;99.90;;;;;;4989480;28;20204;-72
2022/11/26 03:17:39;;;;;;;67.77;28.90;;;3.60;99.90;;;;;;4990109;28;20211;-73
2022/11/26 03:20:09;;;;;;;72.07;30.33;;;3.60;99.90;;;;;;4990755;28;20248;-72
2022/11/26 03:22:36;;;;;;;66.70;28.73;;;3.60;99.90;;;;;;4989646;28;20220;-71
2022/11/26 03:25:04;;;;;;;71.93;31.57;;;3.60;99.90;;;;;;4989592;28;20204;-72
2022/11/26 03:27:31;;;;;;;74.60;29.43;;;3.60;99.90;;;;;;4990453;28;20204;-73
2022/11/26 03:29:58;;;;;;;69.90;30.23;;;3.70;99.90;;;;;;4990753;28;20211;-72
2022/11/26 03:32:25;;;;;;;80.80;31.43;;;3.60;99.90;;;;;;4990114;28;20207;-72
2022/11/26 03:34:52;;;;;;;75.77;31.63;;;3.60;99.90;;;;;;4989603;28;20239;-72
2022/11/26 03:37:20;;;;;;;78.23;31.50;;;3.60;99.90;;;;;;4989966;28;20228;-71
2022/11/26 03:39:47;;;;;;;85.53;32.97;;;3.60;99.90;;;;;;4990263;28;20600;-72
2022/11/26 03:42:13;;;;;;;71.13;30.40;;;3.60;99.90;;;;;;4990440;28;20258;-73
2022/11/26 03:44:40;;;;;;;78.83;32.07;;;3.60;99.90;;;;;;4988450;28;20239;-73
2022/11/26 03:47:07;;;;;;;77.10;31.87;;;3.60;99.90;;;;;;4988421;28;20204;-74
2022/11/26 03:49:34;;;;;;;72.17;30.53;;;3.60;99.90;;;;;;4990619;28;20204;-72
2022/11/26 03:52:01;;;;;;;77.67;32.33;;;3.70;99.90;;;;;;4990813;28;20355;-74
2022/11/26 03:54:29;;;;;;;83.47;31.67;;;3.60;99.90;;;;;;4988576;28;20211;-73
2022/11/26 03:56:56;;;;;;;73.63;32.30;;;3.60;99.90;;;;;;4987426;28;20601;-73
2022/11/26 03:59:23;;;;;;;71.67;31.33;;;3.60;99.90;;;;;;4990813;28;20231;-74
2022/11/26 04:01:50;;;;;;;77.10;31.53;;;3.60;99.90;;;;;;4990279;28;20204;-73
2022/11/26 04:04:17;;;;;;;82.50;32.87;;;3.60;99.90;;;;;;4989757;28;20262;-73
2022/11/26 04:06:43;;;;;;;71.27;30.63;;;3.60;99.90;;;;;;4989358;28;20212;-74
2022/11/26 04:09:10;;;;;;;75.53;31.00;;;3.50;99.90;;;;;;4990822;28;20222;-73
2022/11/26 04:11:38;;;;;;;76.40;30.70;;;3.50;99.90;;;;;;4989874;28;20239;-74
2022/11/26 04:14:05;;;;;;;75.50;30.27;;;3.50;99.90;;;;;;4987978;28;20208;-74
2022/11/26 04:16:32;;;;;;;74.30;30.93;;;3.50;99.90;;;;;;4988665;28;20220;-73
2022/11/26 04:18:59;;;;;;;67.93;30.77;;;3.50;99.90;;;;;;4989591;28;20215;-73
2022/11/26 04:21:26;;;;;;;71.87;29.60;;;3.50;99.90;;;;;;4988673;28;20575;-74
2022/11/26 04:23:53;;;;;;;72.43;30.43;;;3.50;99.90;;;;;;4989594;28;20597;-72
2022/11/26 04:26:20;;;;;;;66.30;29.53;;;3.50;99.90;;;;;;4989606;28;20212;-74
2022/11/26 04:28:49;;;;;;;71.97;28.90;;;3.50;99.90;;;;;;4990455;28;20220;-72
2022/11/26 04:31:16;;;;;;;69.37;29.37;;;3.50;99.90;;;;;;4989403;28;20216;-73
2022/11/26 04:33:43;;;;;;;70.17;29.97;;;3.40;99.90;;;;;;4988120;28;20219;-73
2022/11/26 04:36:10;;;;;;;74.23;28.57;;;3.40;99.90;;;;;;4988594;28;20235;-72
2022/11/26 04:38:37;;;;;;;69.43;29.80;;;3.50;99.90;;;;;;4989914;28;20295;-73
2022/11/26 04:41:04;;;;;;;64.23;28.23;;;3.40;99.90;;;;;;4989666;28;20221;-73
2022/11/26 04:43:31;;;;;;;68.10;27.37;;;3.40;99.90;;;;;;4987594;28;20215;-73
2022/11/26 04:45:59;;;;;;;69.33;29.77;;;3.40;99.90;;;;;;4989316;28;20213;-73
2022/11/26 04:48:26;;;;;;;60.67;27.33;;;3.40;99.90;;;;;;4988501;28;20212;-73
2022/11/26 04:50:53;;;;;;;59.60;26.57;;;3.40;99.90;;;;;;4987933;28;20537;-74
2022/11/26 04:53:20;;;;;;;60.23;27.17;;;3.40;99.90;;;;;;4989805;28;20734;-72
2022/11/26 04:55:49;;;;;;;65.67;26.17;;;3.40;99.90;;;;;;4989000;28;20208;-74
2022/11/26 04:58:16;;;;;;;55.97;25.43;;;3.40;99.90;;;;;;4989168;28;20274;-73
2022/11/26 05:00:43;;;;;;;58.50;26.20;;;3.50;99.90;;;;;;4989423;28;20560;-73
2022/11/26 05:03:11;;;;;;;52.37;23.77;;;3.40;99.90;;;;;;4989258;28;20211;-71
2022/11/26 05:05:38;;;;;;;51.30;23.37;;;3.40;99.90;;;;;;4987868;28;20877;-73
2022/11/26 05:08:05;;;;;;;55.60;24.20;;;3.40;99.90;;;;;;4989347;28;20602;-71
2022/11/26 05:10:31;;;;;;;47.97;22.60;;;3.40;99.90;;;;;;4988332;28;20207;-73
2022/11/26 05:12:58;;;;;;;48.10;22.20;;;3.30;99.90;;;;;;4988677;28;20228;-73
2022/11/26 05:15:25;;;;;;;47.83;22.07;;;3.40;99.90;;;;;;4987033;28;20208;-72
2022/11/26 05:17:52;;;;;;;45.73;22.20;;;3.30;99.90;;;;;;4989797;28;20239;-72
2022/11/26 05:20:20;;;;;;;46.97;22.37;;;3.30;99.90;;;;;;4987031;28;20208;-72
2022/11/26 05:22:47;;;;;;;46.87;22.57;;;3.30;99.90;;;;;;4988746;28;20215;-72
2022/11/26 05:25:13;;;;;;;47.97;23.07;;;3.30;99.90;;;;;;4988284;28;20243;-73
2022/11/26 05:27:40;;;;;;;41.50;20.23;;;3.30;99.90;;;;;;4989888;28;20204;-73
2022/11/26 05:30:08;;;;;;;45.27;20.53;;;3.30;99.90;;;;;;4987769;28;20231;-72
2022/11/26 05:32:35;;;;;;;39.70;20.03;;;3.30;99.90;;;;;;4987234;28;20208;-72
2022/11/26 05:35:02;;;;;;;40.77;20.23;;;3.30;99.90;;;;;;4987554;28;20240;-72
2022/11/26 05:37:30;;;;;;;42.83;19.13;;;3.20;99.90;;;;;;4988670;28;20703;-72
2022/11/26 05:39:57;;;;;;;39.60;20.33;;;3.20;99.90;;;;;;4987672;28;20278;-73
2022/11/26 05:42:24;;;;;;;42.23;20.93;;;3.20;99.90;;;;;;4988045;28;20218;-73
2022/11/26 05:44:51;;;;;;;40.37;19.63;;;3.20;99.90;;;;;;4987922;28;20204;-72
2022/11/26 05:47:18;;;;;;;47.97;22.03;;;3.20;99.90;;;;;;4995302;28;20532;-72
2022/11/26 05:49:45;;;;;;;49.60;22.57;;;3.20;99.90;;;;;;4995626;28;20212;-72
2022/11/26 05:52:11;;;;;;;47.30;21.70;;;3.40;99.90;;;;;;4991266;28;20583;-72
2022/11/26 05:54:40;;;;;;;47.97;22.50;;;3.30;99.90;;;;;;4988221;28;20232;-72
2022/11/26 05:57:06;;;;;;;41.20;21.30;;;3.30;99.90;;;;;;4989474;28;20230;-72
2022/11/26 05:59:33;;;;;;;50.17;22.50;;;3.30;99.90;;;;;;4992049;28;20349;-72
2022/11/26 06:02:00;;;;;;;45.33;20.90;;;3.20;99.90;;;;;;4991557;28;20218;-73
2022/11/26 06:04:27;;;;;;;47.60;22.17;;;3.30;99.90;;;;;;4991417;28;20208;-73
2022/11/26 06:06:54;;;;;;;49.77;21.10;;;3.20;99.90;;;;;;4991089;28;20550;-71
2022/11/26 06:09:21;;;;;;;45.60;20.63;;;3.20;99.90;;;;;;5011893;28;20200;-72
2022/11/26 06:11:50;;;;;;;40.30;20.10;;;3.20;99.90;;;;;;5010089;28;20211;-71
2022/11/26 06:14:17;;;;;;;39.20;19.00;;;3.20;99.90;;;;;;5004582;28;20220;-73
2022/11/26 06:16:44;;;;;;;42.63;19.40;;;3.20;99.90;;;;;;5002624;28;20239;-72
2022/11/26 06:19:14;;;;;;;42.17;20.23;;;3.20;99.90;;;;;;5012027;28;20219;-73
2022/11/26 06:21:40;;;;;;;47.73;20.23;;;3.20;99.90;;;;;;5010460;28;20247;-72
2022/11/26 06:24:07;;;;;;;38.50;18.20;;;3.20;99.90;;;;;;5010155;28;20207;-73
2022/11/26 06:26:34;;;;;;;44.03;19.83;;;3.30;99.90;;;;;;5004084;28;20234;-71
2022/11/26 06:29:02;;;;;;;41.87;19.30;;;3.20;99.90;;;;;;5007859;28;20208;-73
2022/11/26 06:31:30;;;;;;;47.43;19.03;;;3.10;99.90;;;;;;5011851;28;20208;-73
2022/11/26 06:33:57;;;;;;;44.10;19.77;;;3.10;99.90;;;;;;5013206;28;20232;-73
2022/11/26 06:36:24;;;;;;;40.73;18.77;;;3.10;99.90;;;;;;5010354;28;20212;-73
2022/11/26 06:38:51;;;;;;;43.80;19.07;;;3.10;99.90;;;;;;5005525;28;20226;-73
2022/11/26 06:41:18;;;;;;;42.00;19.43;;;3.10;99.90;;;;;;5006989;28;20212;-73
2022/11/26 06:43:45;;;;;;;42.30;21.07;;;3.10;99.90;;;;;;5005757;28;20211;-72
2022/11/26 06:46:13;;;;;;;40.90;18.47;;;3.10;99.90;;;;;;5007343;28;20217;-71
2022/11/26 06:48:40;;;;;;;41.30;17.97;;;3.10;99.90;;;;;;5009011;28;20216;-72
2022/11/26 06:51:09;;;;;;;43.37;18.37;;;3.10;99.90;;;;;;5004906;28;20224;-75
2022/11/26 06:53:36;;;;;;;38.70;18.70;;;3.10;99.90;;;;;;5007023;28;20212;-74
2022/11/26 06:56:05;;;;;;;45.30;17.97;;;3.10;99.90;;;;;;5005108;28;20288;-72
2022/11/26 06:58:32;;;;;;;42.57;18.40;;;3.00;99.90;;;;;;5002394;28;20296;-73
2022/11/26 07:00:59;;;;;;;42.20;17.80;;;3.00;99.90;;;;;;5006823;28;20226;-71
2022/11/26 07:03:27;;;;;;;42.00;16.60;;;3.00;99.90;;;;;;5003324;28;20204;-72
2022/11/26 07:05:54;;;;;;;37.17;16.37;;;3.00;99.90;;;;;;4998060;28;20218;-72
2022/11/26 07:08:20;;;;;;;38.77;16.97;;;3.00;99.90;;;;;;5008985;28;20208;-72
2022/11/26 07:10:47;;;;;;;41.30;18.40;;;2.90;99.90;;;;;;5009216;28;20208;-68
2022/11/26 07:13:14;;;;;;;37.53;18.60;;;2.90;99.90;;;;;;5011416;28;20192;-71
2022/11/26 07:15:41;;;;;;;47.58;22.83;;;2.90;99.90;;;;;;5008720;28;20532;-72
2022/11/26 07:18:08;;;;;;;45.73;19.70;;;2.90;99.90;;;;;;5014350;28;20239;-73
2022/11/26 07:20:37;;;;;;;45.83;20.43;;;2.90;99.90;;;;;;5013661;28;20264;-73
2022/11/26 07:23:04;;;;;;;49.60;19.23;;;2.90;99.90;;;;;;5016183;28;20271;-73
2022/11/26 07:25:31;;;;;;;43.17;19.53;;;2.90;99.90;;;;;;5015019;28;20210;-73
2022/11/26 07:27:59;;;;;;;40.87;19.00;;;2.90;99.90;;;;;;5015172;28;20268;-72
2022/11/26 07:30:26;;;;;;;45.80;20.23;;;2.90;99.90;;;;;;5015520;28;20189;-74
2022/11/26 07:32:53;;;;;;;50.47;25.65;;;3.00;99.90;;;;;;5008530;28;20547;-73
2022/11/26 07:35:20;;;;;;;51.70;22.53;;;2.90;99.90;;;;;;5011702;28;20236;-73
2022/11/26 07:37:48;;;;;;;43.77;19.93;;;2.90;99.90;;;;;;5015024;28;20238;-71
2022/11/26 07:40:15;;;;;;;37.97;18.73;;;2.90;99.90;;;;;;4994930;28;20287;-69
2022/11/26 07:42:42;;;;;;;42.97;18.60;;;2.90;99.90;;;;;;4990524;28;20204;-69
2022/11/26 07:45:09;;;;;;;40.00;19.53;;;2.90;99.90;;;;;;4989664;28;20642;-69
2022/11/26 07:47:36;;;;;;;38.47;18.77;;;2.90;99.90;;;;;;4988189;28;20765;-68
2022/11/26 07:50:03;;;;;;;42.30;19.63;;;2.90;99.90;;;;;;4985676;28;20584;-65
2022/11/26 07:52:30;;;;;;;40.90;18.93;;;2.90;99.90;;;;;;4985994;28;20520;-66
2022/11/26 07:54:58;;;;;;;48.63;19.37;;;2.80;99.90;;;;;;4988805;28;20283;-67
2022/11/26 07:57:25;;;;;;;39.47;18.47;;;2.80;99.90;;;;;;4986006;28;20681;-71
2022/11/26 07:59:52;;;;;;;38.43;18.40;;;2.90;99.90;;;;;;4985050;28;20231;-68
2022/11/26 08:02:19;;;;;;;38.20;17.80;;;2.80;99.90;;;;;;4985522;28;20208;-68
2022/11/26 08:04:46;;;;;;;47.57;19.67;;;2.80;99.90;;;;;;4987293;28;20328;-70
2022/11/26 08:07:13;;;;;;;41.77;18.20;;;2.80;99.90;;;;;;4983412;28;20208;-70
2022/11/26 08:09:39;;;;;;;46.70;20.57;;;2.80;99.90;;;;;;4985499;28;20566;-70
2022/11/26 08:12:08;;;;;;;46.50;20.53;;;2.70;99.90;;;;;;4986505;28;20231;-66
2022/11/26 08:14:34;;;;;;;48.60;20.40;;;2.70;99.90;;;;;;4989710;28;20554;-68
2022/11/26 08:17:01;;;;;;;44.27;19.90;;;2.70;99.90;;;;;;4985241;28;20234;-69
2022/11/26 08:19:28;;;;;;;39.33;19.23;;;2.70;99.90;;;;;;4975782;28;20216;-67
2022/11/26 08:21:55;;;;;;;42.43;19.00;;;2.70;99.90;;;;;;4987900;28;20299;-71
2022/11/26 08:24:22;;;;;;;37.13;18.53;;;2.70;99.90;;;;;;4992193;28;20576;-67
2022/11/26 08:26:49;;;;;;;41.37;18.20;;;2.70;99.90;;;;;;4989775;28;20200;-69
2022/11/26 08:29:18;;;;;;;33.87;16.23;;;2.70;99.90;;;;;;4995784;28;20476;-70
2022/11/26 08:31:45;;;;;;;38.63;18.07;;;2.70;99.90;;;;;;4998850;28;20235;-70
2022/11/26 08:34:14;;;;;;;40.97;18.50;;;2.70;99.90;;;;;;5064310;23;20466;-72
2022/11/26 08:36:41;;;;;;;36.27;17.97;;;2.70;99.90;;;;;;4991696;23;20236;-67
2022/11/26 08:39:09;;;;;;;35.00;17.17;;;3.10;99.90;;;;;;4972688;28;20342;-70
2022/11/26 08:41:36;;;;;;;38.87;18.10;;;2.70;99.90;;;;;;4968255;28;20222;-69
2022/11/26 08:44:03;;;;;;;36.50;16.57;;;2.70;99.90;;;;;;4973944;28;20213;-69
2022/11/26 08:46:31;;;;;;;39.10;17.33;;;2.70;99.90;;;;;;4974142;28;20200;-71
2022/11/26 08:48:58;;;;;;;39.13;18.40;;;2.80;99.90;;;;;;4970517;28;20223;-70
2022/11/26 08:51:25;;;;;;;39.57;17.23;;;2.80;99.90;;;;;;4970115;28;20212;-71
2022/11/26 08:53:52;;;;;;;40.10;17.37;;;2.80;99.90;;;;;;4971957;28;20580;-67
2022/11/26 08:56:19;;;;;;;34.93;16.83;;;2.80;99.90;;;;;;4969114;28;20217;-70
2022/11/26 08:58:47;;;;;;;41.53;17.10;;;2.80;99.90;;;;;;4970693;28;20217;-69
2022/11/26 09:01:16;;;;;;;35.60;18.57;;;2.80;99.90;;;;;;4966565;28;21237;-67
2022/11/26 09:03:47;;;;;;;33.10;16.87;;;2.80;99.90;;;;;;4967162;28;20208;-67
2022/11/26 09:06:14;;;;;;;38.60;18.07;;;2.80;99.90;;;;;;4971164;28;20208;-71
2022/11/26 09:09:11;;;;;;;41.00;18.13;;;2.80;99.90;;;;;;4972413;28;20219;-69
2022/11/26 09:11:34;;;;;;;34.33;16.93;;;2.80;99.90;;;;;;4968396;28;20288;-68
2022/11/26 09:14:01;;;;;;;33.20;16.67;;;2.90;99.90;;;;;;4971380;28;20665;-71
2022/11/26 09:16:28;;;;;;;33.60;16.43;;;2.90;99.90;;;;;;4963074;28;20720;-69
2022/11/26 09:18:59;;;;;;;36.30;16.67;;;2.90;99.90;;;;;;4963683;28;20251;-69
2022/11/26 09:21:26;;;;;;;31.90;14.70;;;2.90;99.90;;;;;;4970892;28;20209;-68
2022/11/26 09:23:53;;;;;;;30.97;16.10;;;2.90;99.90;;;;;;4974987;28;20208;-68
2022/11/26 09:26:20;;;;;;;27.13;13.90;;;2.90;99.90;;;;;;4973468;28;20208;-69
2022/11/26 09:28:48;;;;;;;34.40;16.03;;;2.90;99.90;;;;;;4978889;28;20215;-69
2022/11/26 09:31:15;;;;;;;29.73;15.70;;;2.90;99.90;;;;;;4976584;28;20200;-68
2022/11/26 09:33:42;;;;;;;31.00;15.00;;;2.90;99.90;;;;;;4973790;28;20208;-70
2022/11/26 09:36:12;;;;;;;33.63;15.83;;;3.00;99.90;;;;;;4977973;28;20247;-69
2022/11/26 09:38:39;;;;;;;29.40;14.50;;;3.00;99.90;;;;;;4977182;28;20582;-70
2022/11/26 09:41:14;;;;;;;31.03;15.07;;;3.10;99.90;;;;;;4967297;28;20641;-67
2022/11/26 09:43:55;;;;;;;30.47;14.33;;;3.00;99.90;;;;;;4972999;28;20208;-68
2022/11/26 09:46:28;;;;;;;28.80;14.93;;;3.10;99.90;;;;;;4974178;28;20205;-68
2022/11/26 09:48:57;;;;;;;32.17;16.73;;;3.10;99.90;;;;;;4975148;28;20209;-68
2022/11/26 09:51:26;;;;;;;32.33;15.30;;;3.10;99.90;;;;;;4973280;28;20204;-68
2022/11/26 09:53:55;;;;;;;35.30;16.67;;;3.10;99.90;;;;;;4974934;28;20315;-69
2022/11/26 09:56:26;;;;;;;30.37;16.23;;;3.10;99.90;;;;;;4973370;28;20213;-69
2022/11/26 09:58:56;;;;;;;31.77;15.77;;;3.10;99.90;;;;;;4971904;28;21355;-72
2022/11/26 10:01:24;;;;;;;30.20;16.27;;;3.20;99.90;;;;;;4974901;28;20295;-69
2022/11/26 10:03:52;;;;;;;26.13;13.10;;;3.20;99.90;;;;;;4973901;28;20205;-68
2022/11/26 10:06:36;;;;;;;32.07;15.67;;;3.20;99.90;;;;;;4972033;28;20212;-68
2022/11/26 10:09:22;;;;;;;28.00;15.03;;;3.20;99.90;;;;;;4969249;28;20207;-68
2022/11/26 10:11:56;;;;;;;29.10;14.87;;;3.20;99.90;;;;;;4969502;28;20657;-71
2022/11/26 10:14:36;;;;;;;28.70;15.67;;;3.20;99.90;;;;;;4975919;28;20204;-71
2022/11/26 10:17:18;;;;;;;26.40;14.97;;;3.20;99.90;;;;;;4977780;28;20208;-69
2022/11/26 10:19:56;;;;;;;28.50;15.47;;;3.20;99.90;;;;;;4975319;28;20201;-71
2022/11/26 10:22:28;;;;;;;31.07;14.67;;;3.30;99.90;;;;;;4975175;28;20660;-69
2022/11/26 10:24:58;;;;;;;28.90;15.70;;;3.30;99.90;;;;;;4980297;28;20732;-71
2022/11/26 10:27:30;;;;;;;26.97;15.30;;;3.20;99.90;;;;;;4980764;28;20220;-70
2022/11/26 10:30:01;;;;;;;25.60;14.77;;;3.20;99.90;;;;;;4979172;28;20205;-69
2022/11/26 10:32:34;;;;;;;26.77;14.57;;;3.30;99.90;;;;;;4971366;28;20578;-69
2022/11/26 10:35:01;;;;;;;31.80;14.43;;;3.30;99.90;;;;;;4976486;28;20288;-70
2022/11/26 10:37:29;;;;;;;30.70;15.23;;;3.30;99.90;;;;;;4970390;28;20240;-70
2022/11/26 10:39:57;;;;;;;29.43;15.03;;;3.30;99.90;;;;;;4972940;28;20211;-71
2022/11/26 10:42:24;;;;;;;30.50;15.57;;;3.30;99.90;;;;;;4964924;28;20814;-69
2022/11/26 10:44:52;;;;;;;32.23;15.77;;;3.30;99.90;;;;;;4971582;28;20213;-67
2022/11/26 10:47:27;;;;;;;31.97;16.27;;;2.90;99.90;;;;;;4973222;28;20772;-72
2022/11/26 10:49:57;;;;;;;34.07;16.83;;;3.30;99.90;;;;;;4971154;28;20204;-66
2022/11/26 10:52:27;;;;;;;28.90;15.23;;;3.20;99.90;;;;;;4979292;28;20204;-69
2022/11/26 10:55:20;;;;;;;32.17;16.20;;;3.20;99.90;;;;;;4976982;28;20223;-71
2022/11/26 10:57:51;;;;;;;30.23;15.10;;;3.20;99.90;;;;;;4975769;28;20213;-70
2022/11/26 11:00:31;;;;;;;30.07;15.43;;;3.10;99.90;;;;;;4979206;28;20250;-70
2022/11/26 11:02:59;;;;;;;33.23;15.23;;;3.10;99.90;;;;;;4978315;28;20291;-70
2022/11/26 11:05:26;;;;;;;28.37;15.47;;;3.10;99.90;;;;;;4972118;28;20208;-69
2022/11/26 11:07:53;;;;;;;30.37;15.67;;;3.10;99.90;;;;;;4982444;28;20207;-71
2022/11/26 11:10:24;;;;;;;34.40;15.67;;;3.10;99.90;;;;;;4973991;28;20208;-69
2022/11/26 11:13:02;;;;;;;30.03;15.97;;;3.10;99.90;;;;;;4972957;28;20209;-70
2022/11/26 11:15:31;;;;;;;32.93;16.57;;;3.10;99.90;;;;;;4974009;28;20216;-67
2022/11/26 11:18:00;;;;;;;31.37;16.07;;;3.20;99.90;;;;;;4970966;28;20232;-69
2022/11/26 11:20:30;;;;;;;33.00;16.70;;;3.10;99.90;;;;;;4980906;28;20247;-70
2022/11/26 11:23:03;;;;;;;33.10;16.90;;;3.10;99.90;;;;;;4976954;28;20223;-67
2022/11/26 11:25:33;;;;;;;29.83;15.70;;;3.10;99.90;;;;;;4968854;28;20215;-69
2022/11/26 11:28:04;;;;;;;32.00;16.57;;;3.10;99.90;;;;;;4972443;28;20216;-68
2022/11/26 11:30:34;;;;;;;28.43;15.97;;;3.20;99.90;;;;;;4967708;28;20208;-70
2022/11/26 11:33:20;;;;;;;30.00;15.60;;;3.20;99.90;;;;;;4971148;28;20212;-66
2022/11/26 11:35:58;;;;;;;32.37;16.90;;;3.20;99.90;;;;;;4973217;28;20228;-70
2022/11/26 11:38:29;;;;;;;32.57;16.23;;;3.10;99.90;;;;;;4970097;28;20303;-69
2022/11/26 11:40:57;;;;;;;32.97;17.40;;;3.10;99.90;;;;;;4971783;28;20208;-68
2022/11/26 11:43:25;;;;;;;34.27;17.30;;;3.10;99.90;;;;;;4977343;28;20220;-68
2022/11/26 11:46:05;;;;;;;36.20;17.87;;;3.10;99.90;;;;;;4967383;28;20734;-67
2022/11/26 11:48:42;;;;;;;34.40;17.47;;;3.00;99.90;;;;;;4966741;28;20200;-70
2022/11/26 11:51:17;;;;;;;32.67;16.17;;;3.00;99.90;;;;;;4966788;28;20219;-66
2022/11/26 11:53:55;;;;;;;32.97;16.27;;;3.00;99.90;;;;;;4970784;28;20201;-68
2022/11/26 11:56:30;;;;;;;30.37;16.20;;;3.10;99.90;;;;;;4975937;28;20213;-70
2022/11/26 11:59:34;;;;;;;35.87;16.40;;;3.00;99.90;;;;;;4968692;28;20227;-68
2022/11/26 12:02:22;;;;;;;33.10;16.17;;;3.00;99.90;;;;;;4966012;28;20926;-69
2022/11/26 12:05:03;;;;;;;31.00;15.10;;;3.00;99.90;;;;;;4959020;28;20266;-68
2022/11/26 12:07:37;;;;;;;29.47;15.93;;;3.00;99.90;;;;;;4961240;28;20201;-69
2022/11/26 12:10:14;;;;;;;28.90;14.13;;;3.00;99.90;;;;;;4968950;28;20208;-69
2022/11/26 12:12:46;;;;;;;31.93;15.53;;;3.00;99.90;;;;;;4975103;28;20208;-68
2022/11/26 12:15:22;;;;;;;26.20;15.50;;;3.00;99.90;;;;;;4976379;28;20280;-69
2022/11/26 12:17:54;;;;;;;28.10;15.77;;;3.00;99.90;;;;;;4970296;28;20219;-66
2022/11/26 12:20:29;;;;;;;30.30;16.03;;;3.00;99.90;;;;;;4979533;28;20225;-69
2022/11/26 12:23:11;;;;;;;30.37;16.63;;;3.00;99.90;;;;;;4981136;28;20207;-70
2022/11/26 12:25:39;;;;;;;30.63;16.57;;;3.00;99.90;;;;;;4979434;28;20561;-68
2022/11/26 12:28:15;;;;;;;33.17;16.43;;;3.00;99.90;;;;;;4978177;28;20565;-68
2022/11/26 12:30:48;;;;;;;32.63;16.10;;;3.00;99.90;;;;;;4977158;28;20207;-67
2022/11/26 12:33:20;;;;;;;32.73;17.20;;;3.10;99.90;;;;;;4977587;28;20223;-69
2022/11/26 12:35:52;;;;;;;37.47;17.87;;;3.10;99.90;;;;;;4975573;28;20708;-68
2022/11/26 12:38:25;;;;;;;34.53;18.10;;;3.10;99.90;;;;;;4975115;28;20288;-68
2022/11/26 12:40:59;;;;;;;33.47;17.43;;;3.10;99.90;;;;;;4973342;28;20200;-69
2022/11/26 12:43:36;;;;;;;34.20;18.17;;;3.00;99.90;;;;;;4976353;28;20213;-69
2022/11/26 12:46:08;;;;;;;30.70;16.73;;;3.00;99.90;;;;;;4973504;28;20295;-68
2022/11/26 12:48:41;;;;;;;32.20;16.93;;;3.00;99.90;;;;;;4972252;28;20208;-67
2022/11/26 12:51:19;;;;;;;33.07;16.80;;;3.10;99.90;;;;;;4974993;28;20215;-67
2022/11/26 12:53:52;;;;;;;31.47;16.70;;;3.10;99.90;;;;;;4974865;28;20208;-68